G. O. Sars — LMEL — position and weather

sailwx.info

Track history (hours):
 
Tides and Currents Weather Stations Pressure Air Temp Water Temp Dewpoint Dewpoint Depression Visibility Wind Speed Wind Dir Waves Ship Positions

Oceanographic research ship G. O. Sars (Norway)

Detailed information on ship capabilities available from University of Delaware's Ocean Information Center and ARCUS's ALIAS (Arctic Logistics Information and Support) project.

Last reported at 2017-Oct-18 02:00 UTC. Time now 2017-Oct-18 02:17 UTC.
Position N 62°00' E 005°10'.

Type: Other ship. MMSI: 257105000.

Date/timePositionNaut miles runAvg speedWind from/ knotsBaromVisibWave heightAir tempDewpointWater temp
2017-Oct-18 02:00N 62°00' E 005°10'4 8.8
2017-Oct-18 01:30N 61°56' E 005°08'4 7.9
2017-Oct-18 01:00N 61°53' E 005°12'3 6.3
2017-Oct-18 00:30N 61°49' E 005°13'510.6
2017-Oct-18 00:00N 61°47' E 005°03'5 9.4
2017-Oct-17 23:30N 61°43' E 004°57'510.8
2017-Oct-17 23:00N 61°38' E 004°59'5 9.0
2017-Oct-17 22:30N 61°33' E 004°59'4 8.9
2017-Oct-17 22:00N 61°29' E 004°59'5 9.1
2017-Oct-17 21:29N 61°26' E 004°52'5 9.4
2017-Oct-17 21:00N 61°21' E 004°48'5 9.5
2017-Oct-17 20:30N 61°17' E 004°47'5 9.1
2017-Oct-17 20:00N 61°13' E 004°43'510.0
2017-Oct-17 19:30N 61°08' E 004°45'5 9.6
2017-Oct-17 19:00N 61°03' E 004°44'5 9.7
2017-Oct-17 18:30N 60°58' E 004°45'510.2
2017-Oct-17 18:00N 60°53' E 004°46'5 9.9
2017-Oct-17 17:30N 60°48' E 004°45'611.1
2017-Oct-17 17:00N 60°43' E 004°49'611.4
2017-Oct-17 16:30N 60°37' E 004°53'611.3
2017-Oct-17 16:00N 60°32' E 004°56'611.5
2017-Oct-17 15:30N 60°27' E 005°01'511.0
2017-Oct-17 15:00N 60°23' E 005°10'5 9.1
2017-Oct-17 14:30N 60°24' E 005°19'0 0.2
2017-Oct-17 13:58N 60°24' E 005°19'0 0.0
2017-Oct-17 13:28N 60°24' E 005°19'0 0.0
2017-Oct-17 12:58N 60°24' E 005°19'0 0.0
2017-Oct-17 12:28N 60°24' E 005°19'0 0.0
2017-Oct-17 11:58N 60°24' E 005°19'0 0.0
2017-Oct-17 11:28N 60°24' E 005°19'0 0.0
2017-Oct-17 10:58N 60°24' E 005°19'0 0.0
2017-Oct-17 10:28N 60°24' E 005°19'0 0.0
2017-Oct-17 09:58N 60°24' E 005°19'0 0.0
2017-Oct-17 09:28N 60°24' E 005°19'0 0.0
2017-Oct-17 08:58N 60°24' E 005°19'0 0.0
2017-Oct-17 08:28N 60°24' E 005°19'0 0.0
2017-Oct-17 07:58N 60°24' E 005°19'0 0.0
2017-Oct-17 07:28N 60°24' E 005°19'0 0.0
2017-Oct-17 06:58N 60°24' E 005°19'0 0.0
2017-Oct-17 06:28N 60°24' E 005°19'0 0.0
2017-Oct-17 05:58N 60°24' E 005°19'0 0.0
2017-Oct-17 05:28N 60°24' E 005°19'0 0.0
2017-Oct-17 05:00N 60°24' E 005°19'1 2.4
2017-Oct-17 04:30N 60°24' E 005°17'3 6.1
2017-Oct-17 04:00N 60°23' E 005°11'3 5.1
2017-Oct-17 03:30N 60°24' E 005°06'3 5.3
2017-Oct-17 03:00N 60°26' E 005°02'3 5.1
2017-Oct-17 02:30N 60°28' E 004°60'3 5.0
2017-Oct-17 02:00N 60°31' E 004°58'3 5.1
2017-Oct-17 01:30N 60°33' E 004°56'3 6.6
2017-Oct-17 01:00N 60°36' E 004°54'4 8.7
2017-Oct-17 00:30N 60°40' E 004°50'4 9.0
2017-Oct-17 00:00N 60°44' E 004°47'5 9.5
2017-Oct-16 23:30N 60°49' E 004°44'5 9.4
2017-Oct-16 23:00N 60°54' E 004°46'5 9.9
2017-Oct-16 22:30N 60°59' E 004°46'510.1
2017-Oct-16 22:00N 61°02' E 004°54'510.2
2017-Oct-16 21:30N 61°05' E 005°03'5 9.9
2017-Oct-16 21:00N 61°06' E 005°13'510.7
2017-Oct-16 20:30N 61°04' E 005°23'510.1
2017-Oct-16 19:59N 61°05' E 005°33'510.8
2017-Oct-16 19:30N 61°08' E 005°43'510.6
2017-Oct-16 19:00N 61°09' E 005°54'510.7
2017-Oct-16 18:30N 61°08' E 006°05'510.4
2017-Oct-16 18:00N 61°07' E 006°15'510.1
2017-Oct-16 17:30N 61°06' E 006°25'510.0
2017-Oct-16 17:00N 61°08' E 006°34'4 8.1
2017-Oct-16 16:30N 61°10' E 006°42'510.3
2017-Oct-16 16:00N 61°09' E 006°52'5 9.4
2017-Oct-16 15:30N 61°06' E 006°59'510.0
2017-Oct-16 15:00N 61°08' E 007°09'7 6.6
2017-Oct-16 14:00N 61°10' E 007°22'2 5.0
2017-Oct-16 13:30N 61°12' E 007°23'610.6
2017-Oct-16 12:59N 61°17' E 007°19'5 9.6
2017-Oct-16 12:30N 61°22' E 007°22'0 0.7
2017-Oct-16 12:00N 61°22' E 007°21'1 3.0
2017-Oct-16 11:30N 61°21' E 007°22'1 2.3
2017-Oct-16 11:00N 61°22' E 007°23'2 3.3
2017-Oct-16 10:30N 61°23' E 007°24'3 6.0
2017-Oct-16 10:00N 61°20' E 007°22'1 2.4
2017-Oct-16 09:30N 61°21' E 007°22'2 3.1
2017-Oct-16 09:00N 61°23' E 007°24'0 0.9
2017-Oct-16 08:30N 61°23' E 007°25'3 6.5
2017-Oct-16 08:00N 61°20' E 007°22'1 2.1
2017-Oct-16 07:30N 61°21' E 007°22'2 3.1
2017-Oct-16 07:00N 61°23' E 007°24'0 0.9
2017-Oct-16 06:30N 61°23' E 007°24'1 2.9
2017-Oct-16 06:00N 61°22' E 007°22'0 0.3
2017-Oct-16 05:30N 61°22' E 007°22'0 0.1
2017-Oct-16 05:00N 61°22' E 007°22'0 0.3
2017-Oct-16 04:30N 61°22' E 007°22'1 2.8
2017-Oct-16 04:00N 61°20' E 007°22'1 2.3
2017-Oct-16 03:31N 61°22' E 007°23'2 3.7
2017-Oct-16 03:00N 61°23' E 007°24'0 0.8
2017-Oct-16 02:30N 61°23' E 007°24'0 0.0
2017-Oct-16 02:00N 61°23' E 007°24'0 0.0
2017-Oct-16 01:30N 61°23' E 007°24'0 0.0
2017-Oct-16 01:00N 61°23' E 007°24'2 3.2
2017-Oct-16 00:30N 61°21' E 007°23'0 0.2
2017-Oct-16 00:00N 61°21' E 007°23'0 0.2
2017-Oct-15 23:30N 61°22' E 007°23'0 0.0
2017-Oct-15 23:00N 61°22' E 007°23'0 0.0
2017-Oct-15 22:30N 61°22' E 007°23'0 0.1
2017-Oct-15 22:00N 61°22' E 007°23'0 0.1
2017-Oct-15 21:30N 61°22' E 007°23'0 0.8
2017-Oct-15 21:00N 61°21' E 007°23'2 4.3
2017-Oct-15 20:30N 61°19' E 007°21'1 2.5
2017-Oct-15 20:00N 61°20' E 007°22'2 3.0
2017-Oct-15 19:30N 61°22' E 007°23'2 3.0
2017-Oct-15 19:00N 61°23' E 007°25'4 7.3
2017-Oct-15 18:30N 61°20' E 007°22'1 2.2
2017-Oct-15 18:00N 61°21' E 007°22'1 2.8
2017-Oct-15 17:29N 61°22' E 007°23'1 3.0
2017-Oct-15 17:00N 61°23' E 007°25'0 0.1
2017-Oct-15 16:30N 61°24' E 007°25'0 0.1
2017-Oct-15 16:00N 61°24' E 007°25'0 0.2
2017-Oct-15 15:30N 61°24' E 007°25'0 1.0
2017-Oct-15 15:00N 61°24' E 007°26'6 6.4
2017-Oct-15 14:00N 61°29' E 007°34'1 1.9
2017-Oct-15 13:30N 61°28' E 007°34'5 9.2
2017-Oct-15 13:00N 61°25' E 007°27'4 7.5
2017-Oct-15 12:30N 61°21' E 007°23'0 0.0
2017-Oct-15 12:00N 61°21' E 007°23'0 0.0
2017-Oct-15 11:30N 61°21' E 007°23'0 0.0
2017-Oct-15 11:00N 61°21' E 007°23'0 0.0
2017-Oct-15 10:30N 61°21' E 007°23'0 0.0
2017-Oct-15 09:59N 61°21' E 007°23'1 1.3
2017-Oct-15 09:30N 61°22' E 007°22'0 0.1
2017-Oct-15 09:00N 61°22' E 007°22'0 0.1
2017-Oct-15 08:30N 61°22' E 007°22'3 5.0
2017-Oct-15 08:00N 61°19' E 007°21'1 2.7
2017-Oct-15 07:30N 61°21' E 007°22'2 3.0
2017-Oct-15 07:00N 61°22' E 007°23'1 2.6
2017-Oct-15 06:30N 61°23' E 007°24'0 0.1
2017-Oct-15 06:00N 61°23' E 007°25'0 0.2
2017-Oct-15 05:30N 61°23' E 007°24'0 0.3
2017-Oct-15 05:00N 61°23' E 007°25'2 3.4
2017-Oct-15 04:30N 61°22' E 007°22'0 0.5
2017-Oct-15 04:00N 61°22' E 007°22'1 1.0
2017-Oct-15 03:30N 61°21' E 007°22'1 1.4
2017-Oct-15 03:00N 61°21' E 007°22'1 2.7
2017-Oct-15 02:30N 61°22' E 007°23'1 1.8
2017-Oct-15 02:00N 61°23' E 007°24'1 1.7
2017-Oct-15 01:30N 61°22' E 007°22'0 0.0
2017-Oct-15 01:00N 61°22' E 007°22'3 5.3
2017-Oct-15 00:30N 61°19' E 007°21'1 2.7
2017-Oct-15 00:00N 61°21' E 007°22'1 2.8
2017-Oct-14 23:30N 61°22' E 007°23'1 3.0
2017-Oct-14 23:00N 61°23' E 007°25'4 7.1
2017-Oct-14 22:30N 61°20' E 007°22'1 2.7
2017-Oct-14 22:00N 61°21' E 007°22'2 3.1
2017-Oct-14 21:30N 61°23' E 007°24'1 2.1
2017-Oct-14 21:00N 61°22' E 007°23'3 6.4
2017-Oct-14 20:30N 61°19' E 007°20'1 2.6
2017-Oct-14 20:00N 61°20' E 007°22'1 2.9
2017-Oct-14 19:30N 61°21' E 007°22'2 3.3
2017-Oct-14 19:00N 61°23' E 007°24'1 1.9
2017-Oct-14 18:30N 61°22' E 007°23'0 0.5
2017-Oct-14 18:00N 61°22' E 007°22'0 0.0
2017-Oct-14 17:30N 61°22' E 007°22'0 0.0
2017-Oct-14 17:00N 61°22' E 007°22'0 0.0
2017-Oct-14 16:30N 61°22' E 007°22'0 0.0
2017-Oct-14 16:00N 61°22' E 007°22'0 0.0
2017-Oct-14 15:30N 61°22' E 007°22'2 3.2
2017-Oct-14 15:00N 61°20' E 007°22'1 1.5
2017-Oct-14 14:30N 61°21' E 007°22'2 3.6
2017-Oct-14 14:00N 61°23' E 007°24'3 6.2
2017-Oct-14 13:30N 61°20' E 007°21'0 0.5
2017-Oct-14 13:00N 61°20' E 007°21'1 2.8
2017-Oct-14 12:30N 61°21' E 007°22'2 3.2
2017-Oct-14 12:00N 61°22' E 007°23'1 1.3
2017-Oct-14 11:29N 61°23' E 007°24'1 2.7
2017-Oct-14 11:00N 61°22' E 007°23'3 5.7
2017-Oct-14 10:30N 61°19' E 007°20'1 2.2
2017-Oct-14 10:00N 61°20' E 007°22'1 2.9
2017-Oct-14 09:30N 61°22' E 007°23'1 2.8
2017-Oct-14 09:00N 61°23' E 007°24'0 0.5
2017-Oct-14 08:30N 61°23' E 007°24'1 2.1
2017-Oct-14 08:00N 61°22' E 007°22'0 0.0
2017-Oct-14 07:30N 61°22' E 007°22'0 0.0
2017-Oct-14 06:59N 61°22' E 007°22'0 0.0
2017-Oct-14 06:30N 61°22' E 007°22'0 0.0
2017-Oct-14 06:00N 61°22' E 007°22'0 0.0
2017-Oct-14 05:30N 61°22' E 007°22'0 0.0
2017-Oct-14 05:00N 61°22' E 007°22'0 0.3
2017-Oct-14 04:30N 61°22' E 007°23'1 1.2
2017-Oct-14 04:00N 61°21' E 007°22'1 2.2
2017-Oct-14 03:30N 61°22' E 007°23'3 6.0
2017-Oct-14 03:00N 61°25' E 007°27'2 3.6
2017-Oct-14 02:30N 61°26' E 007°29'1 2.5
2017-Oct-14 02:00N 61°25' E 007°28'510.9
2017-Oct-14 01:30N 61°21' E 007°22'4 8.7
2017-Oct-14 01:00N 61°16' E 007°20'510.7
2017-Oct-14 00:30N 61°11' E 007°25'4 8.9
2017-Oct-14 00:00N 61°09' E 007°16'510.1
2017-Oct-13 23:30N 61°07' E 007°06'5 9.4
2017-Oct-13 23:00N 61°06' E 006°57'5 9.3
2017-Oct-13 22:30N 61°09' E 006°50'510.2
2017-Oct-13 22:00N 61°11' E 006°40'4 7.9
2017-Oct-13 21:30N 61°08' E 006°34'5 9.7
2017-Oct-13 21:00N 61°06' E 006°25'510.0
2017-Oct-13 20:30N 61°07' E 006°15'5 9.9
2017-Oct-13 20:00N 61°08' E 006°05'5 9.4
2017-Oct-13 19:30N 61°08' E 005°55'510.0
2017-Oct-13 19:00N 61°08' E 005°45'5 9.8
2017-Oct-13 18:30N 61°06' E 005°36'5 9.8
2017-Oct-13 18:00N 61°04' E 005°26'4 8.9
2017-Oct-13 17:30N 61°05' E 005°17'5 9.8
2017-Oct-13 17:00N 61°06' E 005°08'510.5
2017-Oct-13 16:30N 61°03' E 004°58'510.6
2017-Oct-13 16:00N 61°00' E 004°49'5 9.0
2017-Oct-13 15:30N 60°56' E 004°46'510.2
2017-Oct-13 15:00N 60°51' E 004°46'510.2
2017-Oct-13 14:30N 60°46' E 004°46'611.4
2017-Oct-13 14:00N 60°40' E 004°51'611.2
2017-Oct-13 13:30N 60°35' E 004°55'511.2
2017-Oct-13 13:00N 60°30' E 004°59'510.8
2017-Oct-13 12:30N 60°25' E 005°04'5 9.4
2017-Oct-13 12:00N 60°24' E 005°13'3 5.7
2017-Oct-13 11:28N 60°24' E 005°19'0 0.0
2017-Oct-13 10:58N 60°24' E 005°19'0 0.0
2017-Oct-13 10:28N 60°24' E 005°19'0 0.0
2017-Oct-13 09:58N 60°24' E 005°19'0 0.0
2017-Oct-13 09:28N 60°24' E 005°19'0 0.0
2017-Oct-13 08:58N 60°24' E 005°19'0 0.0
2017-Oct-13 08:28N 60°24' E 005°19'0 0.0
2017-Oct-13 07:58N 60°24' E 005°19'0 0.0
2017-Oct-13 07:28N 60°24' E 005°19'0 0.0
2017-Oct-13 06:58N 60°24' E 005°19'0 0.0
2017-Oct-13 06:28N 60°24' E 005°19'0 0.0
2017-Oct-13 05:58N 60°24' E 005°19'0 0.0
2017-Oct-13 05:28N 60°24' E 005°19'0 0.0
2017-Oct-13 04:58N 60°24' E 005°19'0 0.0
2017-Oct-13 04:28N 60°24' E 005°19'0 0.0
2017-Oct-13 03:58N 60°24' E 005°19'0 0.0
2017-Oct-13 03:28N 60°24' E 005°19'0 0.0
2017-Oct-13 02:58N 60°24' E 005°19'0 0.0
2017-Oct-13 02:31N 60°24' E 005°19'0 0.0
2017-Oct-13 02:01N 60°24' E 005°19'0 0.0
2017-Oct-13 01:31N 60°24' E 005°19'0 0.0
2017-Oct-13 01:00N 60°24' E 005°19'0 0.0
2017-Oct-13 00:30N 60°24' E 005°19'0 0.0
2017-Oct-12 23:57N 60°24' E 005°19'0 0.0
2017-Oct-12 23:30N 60°24' E 005°19'0 0.0
2017-Oct-12 23:00N 60°24' E 005°19'0 0.0
2017-Oct-12 22:30N 60°24' E 005°19'0 0.0
2017-Oct-12 21:57N 60°24' E 005°19'0 0.0
2017-Oct-12 21:30N 60°24' E 005°19'0 0.0
2017-Oct-12 21:00N 60°24' E 005°19'0 0.0
2017-Oct-12 20:30N 60°24' E 005°19'0 0.0
2017-Oct-12 20:00N 60°24' E 005°19'0 0.0
2017-Oct-12 19:30N 60°24' E 005°19'0 0.0
2017-Oct-12 19:00N 60°24' E 005°19'0 0.0
2017-Oct-12 18:30N 60°24' E 005°19'0 0.0
2017-Oct-12 18:00N 60°24' E 005°19'0 0.0
2017-Oct-12 17:30N 60°24' E 005°19'0 0.0
2017-Oct-12 17:00N 60°24' E 005°19'0 0.0
2017-Oct-12 16:24N 60°24' E 005°19'0 0.0
2017-Oct-12 16:00N 60°24' E 005°19'3 5.4
2017-Oct-12 15:29N 60°24' E 005°13'5 9.3
2017-Oct-12 15:00N 60°25' E 005°04'510.7
2017-Oct-12 14:30N 60°29' E 004°59'511.0
2017-Oct-12 14:00N 60°34' E 004°55'611.3
2017-Oct-12 13:30N 60°40' E 004°51'611.1
2017-Oct-12 13:00N 60°45' E 004°47'4 8.7
2017-Oct-12 12:30N 60°49' E 004°44'4 8.9
2017-Oct-12 12:00N 60°51' E 004°52'510.5
2017-Oct-12 11:30N 60°50' E 005°03'510.9
2017-Oct-12 11:00N 60°47' E 005°12'4 8.3
2017-Oct-12 10:30N 60°49' E 005°20'4 7.1
2017-Oct-12 10:00N 60°52' E 005°22'1 2.2
2017-Oct-12 09:30N 60°52' E 005°25'2 3.5
2017-Oct-12 09:00N 60°53' E 005°28'3 5.6
2017-Oct-12 08:30N 60°52' E 005°22'1 2.1
2017-Oct-12 07:59N 60°52' E 005°25'2 3.4
2017-Oct-12 07:30N 60°53' E 005°28'2 3.4
2017-Oct-12 07:00N 60°52' E 005°25'0 0.1
2017-Oct-12 06:29N 60°52' E 005°25'0 0.1
2017-Oct-12 06:00N 60°52' E 005°25'0 0.1
2017-Oct-12 05:30N 60°52' E 005°25'0 0.2
2017-Oct-12 05:00N 60°52' E 005°24'4 8.4
2017-Oct-12 04:30N 60°49' E 005°19'1 2.6
2017-Oct-12 04:00N 60°50' E 005°21'3 6.1
2017-Oct-12 03:30N 60°52' E 005°25'1 1.3
2017-Oct-12 03:00N 60°52' E 005°26'2 3.1
2017-Oct-12 02:30N 60°52' E 005°23'0 0.4
2017-Oct-12 02:00N 60°52' E 005°23'1 1.5
2017-Oct-12 01:30N 60°52' E 005°25'1 1.0
2017-Oct-12 01:00N 60°52' E 005°26'1 1.3
2017-Oct-12 00:30N 60°52' E 005°24'0 0.9
2017-Oct-11 23:59N 60°52' E 005°23'1 1.2
2017-Oct-11 23:30N 60°52' E 005°22'1 1.2
2017-Oct-11 23:00N 60°52' E 005°23'1 2.7
2017-Oct-11 22:30N 60°53' E 005°26'1 2.3
2017-Oct-11 22:00N 60°53' E 005°29'3 5.9
2017-Oct-11 21:30N 60°52' E 005°22'1 2.0
2017-Oct-11 21:00N 60°52' E 005°25'2 3.3
2017-Oct-11 20:30N 60°53' E 005°28'0 0.3
2017-Oct-11 20:00N 60°53' E 005°28'4 7.7
2017-Oct-11 19:30N 60°51' E 005°21'2 4.4
2017-Oct-11 19:00N 60°48' E 005°19'4 7.2
2017-Oct-11 18:30N 60°52' E 005°21'1 2.4
2017-Oct-11 18:00N 60°52' E 005°24'1 2.8
2017-Oct-11 17:30N 60°53' E 005°26'0 0.6
2017-Oct-11 17:00N 60°53' E 005°27'2 0.1
2017-Oct-11 00:00N 60°52' E 005°22'1 2.5
2017-Oct-10 23:30N 60°52' E 005°25'0 0.0
2017-Oct-10 23:00N 60°52' E 005°25'0 0.0
2017-Oct-10 22:30N 60°52' E 005°25'0 0.0
2017-Oct-10 22:00N 60°52' E 005°25'0 0.2
2017-Oct-10 21:30N 60°52' E 005°24'0 0.6
2017-Oct-10 21:00N 60°52' E 005°25'2 3.2
2017-Oct-10 20:30N 60°53' E 005°28'0 0.3
2017-Oct-10 19:59N 60°53' E 005°28'1 2.3
2017-Oct-10 19:30N 60°52' E 005°26'2 3.5
2017-Oct-10 19:00N 60°52' E 005°22'1 1.3
2017-Oct-10 18:30N 60°52' E 005°23'1 1.2
2017-Oct-10 18:00N 60°52' E 005°25'0 0.0
2017-Oct-10 17:29N 60°52' E 005°25'0 0.0
2017-Oct-10 17:00N 60°52' E 005°25'0 0.0
2017-Oct-10 16:29N 60°52' E 005°25'0 0.0
2017-Oct-10 16:00N 60°52' E 005°25'4 7.3
2017-Oct-10 15:30N 60°49' E 005°20'3 5.7
2017-Oct-10 15:00N 60°47' E 005°16'0 0.0
2017-Oct-10 14:00N 60°47' E 005°16'2 3.6
2017-Oct-10 13:30N 60°48' E 005°19'4 8.2
2017-Oct-10 13:00N 60°52' E 005°22'1 2.6
2017-Oct-10 12:30N 60°52' E 005°25'2 3.1
2017-Oct-10 12:00N 60°53' E 005°28'1 2.4
2017-Oct-10 11:30N 60°52' E 005°25'1 2.9
2017-Oct-10 11:00N 60°52' E 005°22'1 2.5
2017-Oct-10 10:30N 60°52' E 005°25'2 3.2
2017-Oct-10 09:59N 60°53' E 005°28'1 2.4
2017-Oct-10 09:30N 60°52' E 005°26'2 3.2
2017-Oct-10 08:59N 60°52' E 005°22'1 2.8
2017-Oct-10 08:30N 60°52' E 005°25'0 0.0
2017-Oct-10 08:00N 60°52' E 005°25'0 0.9
2017-Oct-10 07:29N 60°52' E 005°24'4 9.0
2017-Oct-10 07:00N 60°49' E 005°19'1 1.2
2017-Oct-10 06:30N 60°48' E 005°18'2 4.3
2017-Oct-10 06:00N 60°47' E 005°15'2 4.6
2017-Oct-10 05:30N 60°47' E 005°10'4 7.3
2017-Oct-10 05:00N 60°49' E 005°04'4 7.3
2017-Oct-10 04:30N 60°50' E 004°57'4 7.9
2017-Oct-10 04:00N 60°51' E 004°49'510.1
2017-Oct-10 03:30N 60°51' E 004°39'5 9.8
2017-Oct-10 03:00N 60°51' E 004°28'5 9.3
2017-Oct-10 02:30N 60°49' E 004°19'  
Track history (hours):
 
Tides and Currents Weather Stations Pressure Air Temp Water Temp Dewpoint Dewpoint Depression Visibility Wind Speed Wind Dir Waves Ship Positions

Oceanographic research ship G. O. Sars (Norway)

Detailed information on ship capabilities available from University of Delaware's Ocean Information Center and ARCUS's ALIAS (Arctic Logistics Information and Support) project.

Last reported at 2017-Oct-18 02:00 UTC. Time now 2017-Oct-18 02:17 UTC.
Position N 62°00' E 005°10'.

Type: Other ship. MMSI: 257105000.

Date/timePositionNaut miles runAvg speedWind from/ knotsBaromVisibWave heightAir tempDewpointWater temp
2017-Oct-18 02:00N 62°00' E 005°10'4 8.8
2017-Oct-18 01:30N 61°56' E 005°08'4 7.9
2017-Oct-18 01:00N 61°53' E 005°12'3 6.3
2017-Oct-18 00:30N 61°49' E 005°13'510.6
2017-Oct-18 00:00N 61°47' E 005°03'5 9.4
2017-Oct-17 23:30N 61°43' E 004°57'510.8
2017-Oct-17 23:00N 61°38' E 004°59'5 9.0
2017-Oct-17 22:30N 61°33' E 004°59'4 8.9
2017-Oct-17 22:00N 61°29' E 004°59'5 9.1
2017-Oct-17 21:29N 61°26' E 004°52'5 9.4
2017-Oct-17 21:00N 61°21' E 004°48'5 9.5
2017-Oct-17 20:30N 61°17' E 004°47'5 9.1
2017-Oct-17 20:00N 61°13' E 004°43'510.0
2017-Oct-17 19:30N 61°08' E 004°45'5 9.6
2017-Oct-17 19:00N 61°03' E 004°44'5 9.7
2017-Oct-17 18:30N 60°58' E 004°45'510.2
2017-Oct-17 18:00N 60°53' E 004°46'5 9.9
2017-Oct-17 17:30N 60°48' E 004°45'611.1
2017-Oct-17 17:00N 60°43' E 004°49'611.4
2017-Oct-17 16:30N 60°37' E 004°53'611.3
2017-Oct-17 16:00N 60°32' E 004°56'611.5
2017-Oct-17 15:30N 60°27' E 005°01'511.0
2017-Oct-17 15:00N 60°23' E 005°10'5 9.1
2017-Oct-17 14:30N 60°24' E 005°19'0 0.2
2017-Oct-17 13:58N 60°24' E 005°19'0 0.0
2017-Oct-17 13:28N 60°24' E 005°19'0 0.0
2017-Oct-17 12:58N 60°24' E 005°19'0 0.0
2017-Oct-17 12:28N 60°24' E 005°19'0 0.0
2017-Oct-17 11:58N 60°24' E 005°19'0 0.0
2017-Oct-17 11:28N 60°24' E 005°19'0 0.0
2017-Oct-17 10:58N 60°24' E 005°19'0 0.0
2017-Oct-17 10:28N 60°24' E 005°19'0 0.0
2017-Oct-17 09:58N 60°24' E 005°19'0 0.0
2017-Oct-17 09:28N 60°24' E 005°19'0 0.0
2017-Oct-17 08:58N 60°24' E 005°19'0 0.0
2017-Oct-17 08:28N 60°24' E 005°19'0 0.0
2017-Oct-17 07:58N 60°24' E 005°19'0 0.0
2017-Oct-17 07:28N 60°24' E 005°19'0 0.0
2017-Oct-17 06:58N 60°24' E 005°19'0 0.0
2017-Oct-17 06:28N 60°24' E 005°19'0 0.0
2017-Oct-17 05:58N 60°24' E 005°19'0 0.0
2017-Oct-17 05:28N 60°24' E 005°19'0 0.0
2017-Oct-17 05:00N 60°24' E 005°19'1 2.4
2017-Oct-17 04:30N 60°24' E 005°17'3 6.1
2017-Oct-17 04:00N 60°23' E 005°11'3 5.1
2017-Oct-17 03:30N 60°24' E 005°06'3 5.3
2017-Oct-17 03:00N 60°26' E 005°02'3 5.1
2017-Oct-17 02:30N 60°28' E 004°60'3 5.0
2017-Oct-17 02:00N 60°31' E 004°58'3 5.1
2017-Oct-17 01:30N 60°33' E 004°56'3 6.6
2017-Oct-17 01:00N 60°36' E 004°54'4 8.7
2017-Oct-17 00:30N 60°40' E 004°50'4 9.0
2017-Oct-17 00:00N 60°44' E 004°47'5 9.5
2017-Oct-16 23:30N 60°49' E 004°44'5 9.4
2017-Oct-16 23:00N 60°54' E 004°46'5 9.9
2017-Oct-16 22:30N 60°59' E 004°46'510.1
2017-Oct-16 22:00N 61°02' E 004°54'510.2
2017-Oct-16 21:30N 61°05' E 005°03'5 9.9
2017-Oct-16 21:00N 61°06' E 005°13'510.7
2017-Oct-16 20:30N 61°04' E 005°23'510.1
2017-Oct-16 19:59N 61°05' E 005°33'510.8
2017-Oct-16 19:30N 61°08' E 005°43'510.6
2017-Oct-16 19:00N 61°09' E 005°54'510.7
2017-Oct-16 18:30N 61°08' E 006°05'510.4
2017-Oct-16 18:00N 61°07' E 006°15'510.1
2017-Oct-16 17:30N 61°06' E 006°25'510.0
2017-Oct-16 17:00N 61°08' E 006°34'4 8.1
2017-Oct-16 16:30N 61°10' E 006°42'510.3
2017-Oct-16 16:00N 61°09' E 006°52'5 9.4
2017-Oct-16 15:30N 61°06' E 006°59'510.0
2017-Oct-16 15:00N 61°08' E 007°09'7 6.6
2017-Oct-16 14:00N 61°10' E 007°22'2 5.0
2017-Oct-16 13:30N 61°12' E 007°23'610.6
2017-Oct-16 12:59N 61°17' E 007°19'5 9.6
2017-Oct-16 12:30N 61°22' E 007°22'0 0.7
2017-Oct-16 12:00N 61°22' E 007°21'1 3.0
2017-Oct-16 11:30N 61°21' E 007°22'1 2.3
2017-Oct-16 11:00N 61°22' E 007°23'2 3.3
2017-Oct-16 10:30N 61°23' E 007°24'3 6.0
2017-Oct-16 10:00N 61°20' E 007°22'1 2.4
2017-Oct-16 09:30N 61°21' E 007°22'2 3.1
2017-Oct-16 09:00N 61°23' E 007°24'0 0.9
2017-Oct-16 08:30N 61°23' E 007°25'3 6.5
2017-Oct-16 08:00N 61°20' E 007°22'1 2.1
2017-Oct-16 07:30N 61°21' E 007°22'2 3.1
2017-Oct-16 07:00N 61°23' E 007°24'0 0.9
2017-Oct-16 06:30N 61°23' E 007°24'1 2.9
2017-Oct-16 06:00N 61°22' E 007°22'0 0.3
2017-Oct-16 05:30N 61°22' E 007°22'0 0.1
2017-Oct-16 05:00N 61°22' E 007°22'0 0.3
2017-Oct-16 04:30N 61°22' E 007°22'1 2.8
2017-Oct-16 04:00N 61°20' E 007°22'1 2.3
2017-Oct-16 03:31N 61°22' E 007°23'2 3.7
2017-Oct-16 03:00N 61°23' E 007°24'0 0.8
2017-Oct-16 02:30N 61°23' E 007°24'0 0.0
2017-Oct-16 02:00N 61°23' E 007°24'0 0.0
2017-Oct-16 01:30N 61°23' E 007°24'0 0.0
2017-Oct-16 01:00N 61°23' E 007°24'2 3.2
2017-Oct-16 00:30N 61°21' E 007°23'0 0.2
2017-Oct-16 00:00N 61°21' E 007°23'0 0.2
2017-Oct-15 23:30N 61°22' E 007°23'0 0.0
2017-Oct-15 23:00N 61°22' E 007°23'0 0.0
2017-Oct-15 22:30N 61°22' E 007°23'0 0.1
2017-Oct-15 22:00N 61°22' E 007°23'0 0.1
2017-Oct-15 21:30N 61°22' E 007°23'0 0.8
2017-Oct-15 21:00N 61°21' E 007°23'2 4.3
2017-Oct-15 20:30N 61°19' E 007°21'1 2.5
2017-Oct-15 20:00N 61°20' E 007°22'2 3.0
2017-Oct-15 19:30N 61°22' E 007°23'2 3.0
2017-Oct-15 19:00N 61°23' E 007°25'4 7.3
2017-Oct-15 18:30N 61°20' E 007°22'1 2.2
2017-Oct-15 18:00N 61°21' E 007°22'1 2.8
2017-Oct-15 17:29N 61°22' E 007°23'1 3.0
2017-Oct-15 17:00N 61°23' E 007°25'0 0.1
2017-Oct-15 16:30N 61°24' E 007°25'0 0.1
2017-Oct-15 16:00N 61°24' E 007°25'0 0.2
2017-Oct-15 15:30N 61°24' E 007°25'0 1.0
2017-Oct-15 15:00N 61°24' E 007°26'6 6.4
2017-Oct-15 14:00N 61°29' E 007°34'1 1.9
2017-Oct-15 13:30N 61°28' E 007°34'5 9.2
2017-Oct-15 13:00N 61°25' E 007°27'4 7.5
2017-Oct-15 12:30N 61°21' E 007°23'0 0.0
2017-Oct-15 12:00N 61°21' E 007°23'0 0.0
2017-Oct-15 11:30N 61°21' E 007°23'0 0.0
2017-Oct-15 11:00N 61°21' E 007°23'0 0.0
2017-Oct-15 10:30N 61°21' E 007°23'0 0.0
2017-Oct-15 09:59N 61°21' E 007°23'1 1.3
2017-Oct-15 09:30N 61°22' E 007°22'0 0.1
2017-Oct-15 09:00N 61°22' E 007°22'0 0.1
2017-Oct-15 08:30N 61°22' E 007°22'3 5.0
2017-Oct-15 08:00N 61°19' E 007°21'1 2.7
2017-Oct-15 07:30N 61°21' E 007°22'2 3.0
2017-Oct-15 07:00N 61°22' E 007°23'1 2.6
2017-Oct-15 06:30N 61°23' E 007°24'0 0.1
2017-Oct-15 06:00N 61°23' E 007°25'0 0.2
2017-Oct-15 05:30N 61°23' E 007°24'0 0.3
2017-Oct-15 05:00N 61°23' E 007°25'2 3.4
2017-Oct-15 04:30N 61°22' E 007°22'0 0.5
2017-Oct-15 04:00N 61°22' E 007°22'1 1.0
2017-Oct-15 03:30N 61°21' E 007°22'1 1.4
2017-Oct-15 03:00N 61°21' E 007°22'1 2.7
2017-Oct-15 02:30N 61°22' E 007°23'1 1.8
2017-Oct-15 02:00N 61°23' E 007°24'1 1.7
2017-Oct-15 01:30N 61°22' E 007°22'0 0.0
2017-Oct-15 01:00N 61°22' E 007°22'3 5.3
2017-Oct-15 00:30N 61°19' E 007°21'1 2.7
2017-Oct-15 00:00N 61°21' E 007°22'1 2.8
2017-Oct-14 23:30N 61°22' E 007°23'1 3.0
2017-Oct-14 23:00N 61°23' E 007°25'4 7.1
2017-Oct-14 22:30N 61°20' E 007°22'1 2.7
2017-Oct-14 22:00N 61°21' E 007°22'2 3.1
2017-Oct-14 21:30N 61°23' E 007°24'1 2.1
2017-Oct-14 21:00N 61°22' E 007°23'3 6.4
2017-Oct-14 20:30N 61°19' E 007°20'1 2.6
2017-Oct-14 20:00N 61°20' E 007°22'1 2.9
2017-Oct-14 19:30N 61°21' E 007°22'2 3.3
2017-Oct-14 19:00N 61°23' E 007°24'1 1.9
2017-Oct-14 18:30N 61°22' E 007°23'0 0.5
2017-Oct-14 18:00N 61°22' E 007°22'0 0.0
2017-Oct-14 17:30N 61°22' E 007°22'0 0.0
2017-Oct-14 17:00N 61°22' E 007°22'0 0.0
2017-Oct-14 16:30N 61°22' E 007°22'0 0.0
2017-Oct-14 16:00N 61°22' E 007°22'0 0.0
2017-Oct-14 15:30N 61°22' E 007°22'2 3.2
2017-Oct-14 15:00N 61°20' E 007°22'1 1.5
2017-Oct-14 14:30N 61°21' E 007°22'2 3.6
2017-Oct-14 14:00N 61°23' E 007°24'3 6.2
2017-Oct-14 13:30N 61°20' E 007°21'0 0.5
2017-Oct-14 13:00N 61°20' E 007°21'1 2.8
2017-Oct-14 12:30N 61°21' E 007°22'2 3.2
2017-Oct-14 12:00N 61°22' E 007°23'1 1.3
2017-Oct-14 11:29N 61°23' E 007°24'1 2.7
2017-Oct-14 11:00N 61°22' E 007°23'3 5.7
2017-Oct-14 10:30N 61°19' E 007°20'1 2.2
2017-Oct-14 10:00N 61°20' E 007°22'1 2.9
2017-Oct-14 09:30N 61°22' E 007°23'1 2.8
2017-Oct-14 09:00N 61°23' E 007°24'0 0.5
2017-Oct-14 08:30N 61°23' E 007°24'1 2.1
2017-Oct-14 08:00N 61°22' E 007°22'0 0.0
2017-Oct-14 07:30N 61°22' E 007°22'0 0.0
2017-Oct-14 06:59N 61°22' E 007°22'0 0.0
2017-Oct-14 06:30N 61°22' E 007°22'0 0.0
2017-Oct-14 06:00N 61°22' E 007°22'0 0.0
2017-Oct-14 05:30N 61°22' E 007°22'0 0.0
2017-Oct-14 05:00N 61°22' E 007°22'0 0.3
2017-Oct-14 04:30N 61°22' E 007°23'1 1.2
2017-Oct-14 04:00N 61°21' E 007°22'1 2.2
2017-Oct-14 03:30N 61°22' E 007°23'3 6.0
2017-Oct-14 03:00N 61°25' E 007°27'2 3.6
2017-Oct-14 02:30N 61°26' E 007°29'1 2.5
2017-Oct-14 02:00N 61°25' E 007°28'510.9
2017-Oct-14 01:30N 61°21' E 007°22'4 8.7
2017-Oct-14 01:00N 61°16' E 007°20'510.7
2017-Oct-14 00:30N 61°11' E 007°25'4 8.9
2017-Oct-14 00:00N 61°09' E 007°16'510.1
2017-Oct-13 23:30N 61°07' E 007°06'5 9.4
2017-Oct-13 23:00N 61°06' E 006°57'5 9.3
2017-Oct-13 22:30N 61°09' E 006°50'510.2
2017-Oct-13 22:00N 61°11' E 006°40'4 7.9
2017-Oct-13 21:30N 61°08' E 006°34'5 9.7
2017-Oct-13 21:00N 61°06' E 006°25'510.0
2017-Oct-13 20:30N 61°07' E 006°15'5 9.9
2017-Oct-13 20:00N 61°08' E 006°05'5 9.4
2017-Oct-13 19:30N 61°08' E 005°55'510.0
2017-Oct-13 19:00N 61°08' E 005°45'5 9.8
2017-Oct-13 18:30N 61°06' E 005°36'5 9.8
2017-Oct-13 18:00N 61°04' E 005°26'4 8.9
2017-Oct-13 17:30N 61°05' E 005°17'5 9.8
2017-Oct-13 17:00N 61°06' E 005°08'510.5
2017-Oct-13 16:30N 61°03' E 004°58'510.6
2017-Oct-13 16:00N 61°00' E 004°49'5 9.0
2017-Oct-13 15:30N 60°56' E 004°46'510.2
2017-Oct-13 15:00N 60°51' E 004°46'510.2
2017-Oct-13 14:30N 60°46' E 004°46'611.4
2017-Oct-13 14:00N 60°40' E 004°51'611.2
2017-Oct-13 13:30N 60°35' E 004°55'511.2
2017-Oct-13 13:00N 60°30' E 004°59'510.8
2017-Oct-13 12:30N 60°25' E 005°04'5 9.4
2017-Oct-13 12:00N 60°24' E 005°13'3 5.7
2017-Oct-13 11:28N 60°24' E 005°19'0 0.0
2017-Oct-13 10:58N 60°24' E 005°19'0 0.0
2017-Oct-13 10:28N 60°24' E 005°19'0 0.0
2017-Oct-13 09:58N 60°24' E 005°19'0 0.0
2017-Oct-13 09:28N 60°24' E 005°19'0 0.0
2017-Oct-13 08:58N 60°24' E 005°19'0 0.0
2017-Oct-13 08:28N 60°24' E 005°19'0 0.0
2017-Oct-13 07:58N 60°24' E 005°19'0 0.0
2017-Oct-13 07:28N 60°24' E 005°19'0 0.0
2017-Oct-13 06:58N 60°24' E 005°19'0 0.0
2017-Oct-13 06:28N 60°24' E 005°19'0 0.0
2017-Oct-13 05:58N 60°24' E 005°19'0 0.0
2017-Oct-13 05:28N 60°24' E 005°19'0 0.0
2017-Oct-13 04:58N 60°24' E 005°19'0 0.0
2017-Oct-13 04:28N 60°24' E 005°19'0 0.0
2017-Oct-13 03:58N 60°24' E 005°19'0 0.0
2017-Oct-13 03:28N 60°24' E 005°19'0 0.0
2017-Oct-13 02:58N 60°24' E 005°19'0 0.0
2017-Oct-13 02:31N 60°24' E 005°19'0 0.0
2017-Oct-13 02:01N 60°24' E 005°19'0 0.0
2017-Oct-13 01:31N 60°24' E 005°19'0 0.0
2017-Oct-13 01:00N 60°24' E 005°19'0 0.0
2017-Oct-13 00:30N 60°24' E 005°19'0 0.0
2017-Oct-12 23:57N 60°24' E 005°19'0 0.0
2017-Oct-12 23:30N 60°24' E 005°19'0 0.0
2017-Oct-12 23:00N 60°24' E 005°19'0 0.0
2017-Oct-12 22:30N 60°24' E 005°19'0 0.0
2017-Oct-12 21:57N 60°24' E 005°19'0 0.0
2017-Oct-12 21:30N 60°24' E 005°19'0 0.0
2017-Oct-12 21:00N 60°24' E 005°19'0 0.0
2017-Oct-12 20:30N 60°24' E 005°19'0 0.0
2017-Oct-12 20:00N 60°24' E 005°19'0 0.0
2017-Oct-12 19:30N 60°24' E 005°19'0 0.0
2017-Oct-12 19:00N 60°24' E 005°19'0 0.0
2017-Oct-12 18:30N 60°24' E 005°19'0 0.0
2017-Oct-12 18:00N 60°24' E 005°19'0 0.0
2017-Oct-12 17:30N 60°24' E 005°19'0 0.0
2017-Oct-12 17:00N 60°24' E 005°19'0 0.0
2017-Oct-12 16:24N 60°24' E 005°19'0 0.0
2017-Oct-12 16:00N 60°24' E 005°19'3 5.4
2017-Oct-12 15:29N 60°24' E 005°13'5 9.3
2017-Oct-12 15:00N 60°25' E 005°04'510.7
2017-Oct-12 14:30N 60°29' E 004°59'511.0
2017-Oct-12 14:00N 60°34' E 004°55'611.3
2017-Oct-12 13:30N 60°40' E 004°51'611.1
2017-Oct-12 13:00N 60°45' E 004°47'4 8.7
2017-Oct-12 12:30N 60°49' E 004°44'4 8.9
2017-Oct-12 12:00N 60°51' E 004°52'510.5
2017-Oct-12 11:30N 60°50' E 005°03'510.9
2017-Oct-12 11:00N 60°47' E 005°12'4 8.3
2017-Oct-12 10:30N 60°49' E 005°20'4 7.1
2017-Oct-12 10:00N 60°52' E 005°22'1 2.2
2017-Oct-12 09:30N 60°52' E 005°25'2 3.5
2017-Oct-12 09:00N 60°53' E 005°28'3 5.6
2017-Oct-12 08:30N 60°52' E 005°22'1 2.1
2017-Oct-12 07:59N 60°52' E 005°25'2 3.4
2017-Oct-12 07:30N 60°53' E 005°28'2 3.4
2017-Oct-12 07:00N 60°52' E 005°25'0 0.1
2017-Oct-12 06:29N 60°52' E 005°25'0 0.1
2017-Oct-12 06:00N 60°52' E 005°25'0 0.1
2017-Oct-12 05:30N 60°52' E 005°25'0 0.2
2017-Oct-12 05:00N 60°52' E 005°24'4 8.4
2017-Oct-12 04:30N 60°49' E 005°19'1 2.6
2017-Oct-12 04:00N 60°50' E 005°21'3 6.1
2017-Oct-12 03:30N 60°52' E 005°25'1 1.3
2017-Oct-12 03:00N 60°52' E 005°26'2 3.1
2017-Oct-12 02:30N 60°52' E 005°23'0 0.4
2017-Oct-12 02:00N 60°52' E 005°23'1 1.5
2017-Oct-12 01:30N 60°52' E 005°25'1 1.0
2017-Oct-12 01:00N 60°52' E 005°26'1 1.3
2017-Oct-12 00:30N 60°52' E 005°24'0 0.9
2017-Oct-11 23:59N 60°52' E 005°23'1 1.2
2017-Oct-11 23:30N 60°52' E 005°22'1 1.2
2017-Oct-11 23:00N 60°52' E 005°23'1 2.7
2017-Oct-11 22:30N 60°53' E 005°26'1 2.3
2017-Oct-11 22:00N 60°53' E 005°29'3 5.9
2017-Oct-11 21:30N 60°52' E 005°22'1 2.0
2017-Oct-11 21:00N 60°52' E 005°25'2 3.3
2017-Oct-11 20:30N 60°53' E 005°28'0 0.3
2017-Oct-11 20:00N 60°53' E 005°28'4 7.7
2017-Oct-11 19:30N 60°51' E 005°21'2 4.4
2017-Oct-11 19:00N 60°48' E 005°19'4 7.2
2017-Oct-11 18:30N 60°52' E 005°21'1 2.4
2017-Oct-11 18:00N 60°52' E 005°24'1 2.8
2017-Oct-11 17:30N 60°53' E 005°26'0 0.6
2017-Oct-11 17:00N 60°53' E 005°27'2 0.1
2017-Oct-11 00:00N 60°52' E 005°22'1 2.5
2017-Oct-10 23:30N 60°52' E 005°25'0 0.0
2017-Oct-10 23:00N 60°52' E 005°25'0 0.0
2017-Oct-10 22:30N 60°52' E 005°25'0 0.0
2017-Oct-10 22:00N 60°52' E 005°25'0 0.2
2017-Oct-10 21:30N 60°52' E 005°24'0 0.6
2017-Oct-10 21:00N 60°52' E 005°25'2 3.2
2017-Oct-10 20:30N 60°53' E 005°28'0 0.3
2017-Oct-10 19:59N 60°53' E 005°28'1 2.3
2017-Oct-10 19:30N 60°52' E 005°26'2 3.5
2017-Oct-10 19:00N 60°52' E 005°22'1 1.3
2017-Oct-10 18:30N 60°52' E 005°23'1 1.2
2017-Oct-10 18:00N 60°52' E 005°25'0 0.0
2017-Oct-10 17:29N 60°52' E 005°25'0 0.0
2017-Oct-10 17:00N 60°52' E 005°25'0 0.0
2017-Oct-10 16:29N 60°52' E 005°25'0 0.0
2017-Oct-10 16:00N 60°52' E 005°25'4 7.3
2017-Oct-10 15:30N 60°49' E 005°20'3 5.7
2017-Oct-10 15:00N 60°47' E 005°16'0 0.0
2017-Oct-10 14:00N 60°47' E 005°16'2 3.6
2017-Oct-10 13:30N 60°48' E 005°19'4 8.2
2017-Oct-10 13:00N 60°52' E 005°22'1 2.6
2017-Oct-10 12:30N 60°52' E 005°25'2 3.1
2017-Oct-10 12:00N 60°53' E 005°28'1 2.4
2017-Oct-10 11:30N 60°52' E 005°25'1 2.9
2017-Oct-10 11:00N 60°52' E 005°22'1 2.5
2017-Oct-10 10:30N 60°52' E 005°25'2 3.2
2017-Oct-10 09:59N 60°53' E 005°28'1 2.4
2017-Oct-10 09:30N 60°52' E 005°26'2 3.2
2017-Oct-10 08:59N 60°52' E 005°22'1 2.8
2017-Oct-10 08:30N 60°52' E 005°25'0 0.0
2017-Oct-10 08:00N 60°52' E 005°25'0 0.9
2017-Oct-10 07:29N 60°52' E 005°24'4 9.0
2017-Oct-10 07:00N 60°49' E 005°19'1 1.2
2017-Oct-10 06:30N 60°48' E 005°18'2 4.3
2017-Oct-10 06:00N 60°47' E 005°15'2 4.6
2017-Oct-10 05:30N 60°47' E 005°10'4 7.3
2017-Oct-10 05:00N 60°49' E 005°04'4 7.3
2017-Oct-10 04:30N 60°50' E 004°57'4 7.9
2017-Oct-10 04:00N 60°51' E 004°49'510.1
2017-Oct-10 03:30N 60°51' E 004°39'5 9.8
2017-Oct-10 03:00N 60°51' E 004°28'5 9.3
2017-Oct-10 02:30N 60°49' E 004°19'  

Dump ship's entire track history